Point Reyes Station, CA

12:40 PM PDT on August 27, 2014 (GMT -0700)
Napa County | Change Station
CLOSE
Current Station
Airport
Location: Napa County,
Elevation: 33 ft
Nearby Weather Stations

Elev 33 ft 38.21 °N, 122.28 °W | Updated 46 minutes ago

Clear
Clear
74 °F
Feels Like 74 °F
N
6
Wind Variable Wind from Variable

Today
High -- | Low -- °F
--% Chance of Precip.
Yesterday
High -- | Low -- °F
Precip. -- in
6:36 AM 7:47 PM
Waxing Crescent, 4% visible
Pressure 30.03 in
Visibility 10.0 miles
Clouds Clear
Dew Point 58 °F
Humidity 57%
Rainfall 0.00 in
Snow Depth Not available.
UV 9 out of 12
Pollen 7.00 out of 12
Air Quality Not available.
Flu Activity Not available.
METAR KAPC 271854Z AUTO VRB05KT 10SM CLR 23/14 A3005 RMK AO2 SLP167 T02330144

More Conditions Fewer Conditions

Pressure 30.03 in
Visibility 10.0 miles
Clouds Clear
Dew Point 58 °F
Humidity 57%
Rainfall 0.00 in
Snow Depth Not available.
UV 9 out of 12
Pollen 7.00 out of 12
Air Quality Not available.
Flu Activity Not available.
METAR KAPC 271854Z AUTO VRB05KT 10SM CLR 23/14 A3005 RMK AO2 SLP167 T02330144

More Conditions Fewer Conditions

10-Day Weather Forecast

Almanac

Astronomy

Aug. 27, 2014 Rise Set
Actual Time 6:36 AM PDT 7:47 PM PDT
Civil Twilight 6:09 AM PDT 8:15 PM PDT
Nautical Twilight 5:36 AM PDT 8:47 PM PDT
Astronomical Twilight 5:03 AM PDT 9:21 PM PDT
Moon 8:35 AM PDT 8:46 PM PDT
Length of Visible Light 14h 05m
Length of Day
13h 11m
Tomorrow will be 2m 20s shorter.
Waxing Crescent, 4% of the Moon is Illuminated
Today
Waxing Crescent
Sep 2
First Quarter
Sep 8
Full
Sep 15
Last Quarter
Sep 24
New

Today's Extremes

State Highs State Lows

Community

WunderPhotos

Upload Photos

1,747,771 photos uploaded!

Nearby

Snow Depth

Station Depth Elevation
Fallen Leaf 0 in 6300 ft
Leavitt Lake 0 in 9400 ft
Leavitt Meadows 0 in 7200 ft
Monitor Pass 0 in 8350 ft
Summit Meadow 0 in 9122 ft

Earthquake Activity

City Distance Mag. Time & Date
Napa, California 27 miles 2.6 11:57 AM PDT
2014-08-27
The Geysers, California 51 miles 2.6 7:42 AM PDT
2014-08-27
Soledad, California 140 miles 2.6 12:15 PM PDT
2014-08-26
Napa, California 27 miles 2.5 10:56 AM PDT
2014-08-26
Minimum magnitude displayed is 2.5.

Coastal Water Temperatures

Place Temperature
Point Reyes, CA 64.9 °F
Arena Cove, CA 60.1 °F
San Francisco, CA 66.0 °F
Richmond, CA 66.9 °F

Nearby Weather Stations